Main page
METAR-TAF:

METAR-TAF

Airports :

Londrina Airport

Londrina, Paraná, Brazil

latitude: 23-20S, longitude: 051-08W, elevation: 569 m

Current weather observation

The report was made 42 minutes ago, at 07:00 UTC
Calm wind
Temperature 18°C
Humidity 77%
Pressure 1015 hPa
Visibility 10 km or more
no clouds below 1500 m and no cumulonimbus

METAR: SBLO 190700Z 00000KT CAVOK 18/14 Q1015

Time: 04:42 (07:42 UTC)

Forecast

The report was made 6 hours and 12 minutes ago, at 01:30 UTC
Forecast valid from 19 at 06 UTC to 19 at 18 UTC
Wind kt from the North
Visibility 10 km or more
no clouds below 1500 m and no cumulonimbus

TAF: SBLO 190130Z 1906/1918 00000KT CAVOK TN17/1909Z TX32/1917Z RMK PE B

Weather observations and forecasts of more than 4000 airports (METAR and TAF reports).

The available stations are represented by yellow and red dots on the map.

Hover mouse over dot to see the name of the station.

Then click to see weather observations and forecasts.

To change the map : click on the green buttons with a black cross to zoom in, on the green button with a dash to zoom out, or on the green arrows for adjacent maps.


METAR-TAF: